Time;durP1;ratioP1;P1;durP2;ratioP2;P2;SDS_P1;SDS_P2;PMS_P1;PMS_P2;Temp;Humidity;BMP_temperature;BMP_pressure;BME280_temperature;BME280_humidity;BME280_pressure;Samples;Min_cycle;Max_cycle;Signal;HPM_P1;HPM_P2
2023/12/27 10:58:16;;;;;;;;;;;;;;;8.62;61.08;97441.34;4248167;27;10367;-72
2023/12/27 11:00:20;;;;;;;;;;;;;;;8.93;61.02;97438.81;4242658;27;5602;-70
2023/12/27 11:02:25;;;;;;;;;;;;;;;9.15;60.56;97434.66;4224799;27;5598;-69
2023/12/27 11:04:28;;;;;;;;;;;;;;;9.30;60.12;97425.09;4224830;28;5774;-69
2023/12/27 11:06:32;;;;;;;;;;;;;;;9.46;59.62;97429.47;4228658;28;5829;-68
2023/12/27 11:08:35;;;;;;;;;;;;;;;9.57;59.29;97431.75;4230697;27;5597;-69
2023/12/27 11:10:40;;;;;;;;;;;;;;;9.70;58.96;97433.00;4231744;28;5621;-70
2023/12/27 11:12:44;;;;;;;;;;;;;;;9.77;58.77;97418.94;4230685;28;5645;-69
2023/12/27 11:14:50;;;;;;;;;;;;;;;9.87;58.65;97421.38;4228707;28;5611;-69
2023/12/27 11:16:54;;;;;;;;;;;;;;;9.92;58.43;97413.75;4218383;28;6538;-68
2023/12/27 11:19:01;;;;;;;;;;;;;;;10.01;58.31;97414.53;4230972;28;5706;-68
2023/12/27 11:21:05;;;;;;;;;;;;;;;10.06;58.10;97405.06;4222029;27;5085;-71
2023/12/27 11:23:08;;;;;;;;;;;;;;;10.13;57.83;97405.19;4226281;27;5693;-69
2023/12/27 11:25:13;;;;;;;;;;;;;;;10.18;57.85;97410.78;4218071;28;5762;-68
2023/12/27 11:27:18;;;;;;;;;;;;;;;10.19;57.83;97400.06;4220694;28;5198;-71
2023/12/27 11:29:20;;;;;;;;;;;;;;;10.23;57.60;97392.63;4224851;28;5637;-66
2023/12/27 11:31:25;;;;;;;;;;;;;;;10.26;57.36;97388.78;4232306;27;5590;-66
2023/12/27 11:33:28;;;;;;;;;;;;;;;10.28;57.59;97390.25;4229156;27;5624;-69
2023/12/27 11:35:36;;;;;;;;;;;;;;;10.33;57.21;97389.75;4229760;28;5632;-70
2023/12/27 11:37:41;;;;;;;;;;;;;;;10.35;57.32;97388.56;4229708;28;5805;-69
2023/12/27 11:39:48;;;;;;;;;;;;;;;10.38;57.19;97379.44;4237202;27;5823;-72
2023/12/27 11:41:51;;;;;;;;;;;;;;;10.42;57.44;97384.22;4217319;27;5845;-71
2023/12/27 11:43:56;;;;;;;;;;;;;;;10.44;57.25;97371.66;4221692;28;5632;-69
2023/12/27 11:46:01;;;;;;;;;;;;;;;10.47;57.07;97371.28;4235909;27;5694;-71
2023/12/27 11:48:08;;;;;;;;;;;;;;;10.49;57.05;97369.28;4223628;27;5817;-72
2023/12/27 11:50:22;;;;;;;;;;;;;;;10.51;56.80;97361.16;4236719;27;5668;-63
2023/12/27 11:52:27;;;;;;;;;;;;;;;10.52;56.88;97362.81;4229518;27;5083;-68
2023/12/27 11:54:30;;;;;;;;;;;;;;;10.53;56.97;97355.69;4236056;27;7675;-67
2023/12/27 11:56:35;;;;;;;;;;;;;;;10.50;56.55;97349.78;4227718;27;5882;-69
2023/12/27 11:58:42;;;;;;;;;;;;;;;10.53;56.60;97353.06;4216562;27;5683;-71
2023/12/27 12:00:45;;;;;;;;;;;;;;;10.55;56.62;97341.31;4222234;28;6313;-66
2023/12/27 12:02:51;;;;;;;;;;;;;;;10.56;56.62;97336.84;4226678;28;5606;-72
2023/12/27 12:05:09;;;;;;;;;;;;;;;10.57;56.35;97336.66;4224689;28;5888;-69
2023/12/27 12:07:54;;;;;;;;;;;;;;;10.58;56.24;97329.56;4213648;28;6392;-70
2023/12/27 12:09:58;;;;;;;;;;;;;;;10.59;56.25;97325.91;4202698;28;5719;-68
2023/12/27 12:12:09;;;;;;;;;;;;;;;10.59;56.40;97325.91;4206501;28;5628;-67
2023/12/27 12:14:13;;;;;;;;;;;;;;;10.60;56.32;97315.16;4204973;28;5851;-67
2023/12/27 12:16:16;;;;;;;;;;;;;;;10.57;56.16;97310.22;4213628;28;5725;-67
2023/12/27 12:18:21;;;;;;;;;;;;;;;10.58;56.13;97298.66;4209904;28;5712;-67
2023/12/27 12:20:27;;;;;;;;;;;;;;;10.60;56.17;97296.63;4211168;28;5815;-67
2023/12/27 12:22:31;;;;;;;;;;;;;;;10.63;56.24;97296.28;4212100;28;6263;-66
2023/12/27 12:24:34;;;;;;;;;;;;;;;10.63;56.05;97288.34;4211060;28;5845;-67
2023/12/27 12:26:36;;;;;;;;;;;;;;;10.66;56.06;97284.53;4203587;28;5684;-67
2023/12/27 12:28:39;;;;;;;;;;;;;;;10.66;56.18;97282.72;4208800;28;5703;-67
2023/12/27 12:30:45;;;;;;;;;;;;;;;10.65;56.19;97272.31;4190921;28;5632;-67
2023/12/27 12:32:48;;;;;;;;;;;;;;;10.66;56.18;97268.66;4206565;28;5736;-67
2023/12/27 12:34:52;;;;;;;;;;;;;;;10.66;56.15;97258.09;4192645;28;5766;-66
2023/12/27 12:36:58;;;;;;;;;;;;;;;10.65;56.23;97253.81;4205204;28;5644;-67
2023/12/27 12:39:01;;;;;;;;;;;;;;;10.64;55.96;97249.50;4218804;28;5609;-72
2023/12/27 12:41:09;;;;;;;;;;;;;;;10.64;56.05;97250.31;4208926;28;5616;-69
2023/12/27 12:43:13;;;;;;;;;;;;;;;10.61;56.05;97248.03;4218657;28;5621;-73
2023/12/27 12:45:17;;;;;;;;;;;;;;;10.63;56.00;97248.69;4212081;28;5806;-69
2023/12/27 12:47:21;;;;;;;;;;;;;;;10.66;56.21;97244.88;4213215;28;5948;-70
2023/12/27 12:49:24;;;;;;;;;;;;;;;10.68;56.14;97241.03;4211340;28;5609;-72
2023/12/27 12:51:27;;;;;;;;;;;;;;;10.70;55.85;97222.34;4202967;28;5698;-69
2023/12/27 12:53:33;;;;;;;;;;;;;;;10.70;56.17;97231.09;4212860;28;5699;-71
2023/12/27 12:55:36;;;;;;;;;;;;;;;10.72;55.93;97225.63;4211590;28;5730;-71
2023/12/27 12:57:39;;;;;;;;;;;;;;;10.71;56.12;97218.69;4222854;28;5909;-71
2023/12/27 12:59:42;;;;;;;;;;;;;;;10.73;55.83;97211.38;4216316;28;5731;-72
2023/12/27 13:01:45;;;;;;;;;;;;;;;10.71;55.70;97208.94;4208065;28;5826;-71
2023/12/27 13:03:48;;;;;;;;;;;;;;;10.71;55.89;97206.28;4209870;28;5859;-71
2023/12/27 13:05:51;;;;;;;;;;;;;;;10.74;55.97;97205.09;4205526;28;5110;-72
2023/12/27 13:07:53;;;;;;;;;;;;;;;10.75;55.93;97204.09;4214440;28;8469;-73
2023/12/27 13:09:59;;;;;;;;;;;;;;;10.75;56.12;97191.69;4214464;28;5700;-72
2023/12/27 13:12:04;;;;;;;;;;;;;;;10.77;55.82;97187.06;4201033;28;5801;-71
2023/12/27 13:14:07;;;;;;;;;;;;;;;10.78;55.99;97188.69;4224851;28;5774;-72
2023/12/27 13:16:10;;;;;;;;;;;;;;;10.79;56.12;97186.88;4205159;28;5679;-72
2023/12/27 13:18:13;;;;;;;;;;;;;;;10.75;55.82;97182.94;4220797;28;6306;-73
2023/12/27 13:20:16;;;;;;;;;;;;;;;10.71;56.07;97181.66;4204531;28;5771;-73
2023/12/27 13:22:19;;;;;;;;;;;;;;;10.71;55.59;97171.09;4207698;28;5723;-73
2023/12/27 13:24:21;;;;;;;;;;;;;;;10.69;55.86;97176.56;4207981;28;5780;-73
2023/12/27 13:26:26;;;;;;;;;;;;;;;10.69;55.82;97165.19;4205141;28;5790;-72
2023/12/27 13:28:29;;;;;;;;;;;;;;;10.69;55.75;97159.88;4209669;28;5686;-73
2023/12/27 13:30:31;;;;;;;;;;;;;;;10.71;56.06;97160.50;4220318;28;5745;-73
2023/12/27 13:32:35;;;;;;;;;;;;;;;10.73;55.96;97163.78;4213328;28;5691;-72
2023/12/27 13:34:37;;;;;;;;;;;;;;;10.73;55.94;97169.06;4219039;28;5085;-69
2023/12/27 13:36:40;;;;;;;;;;;;;;;10.74;56.10;97162.78;4205439;28;5866;-68
2023/12/27 13:38:47;;;;;;;;;;;;;;;10.73;56.04;97166.44;4209600;28;5693;-70
2023/12/27 13:40:51;;;;;;;;;;;;;;;10.71;56.06;97160.50;4206536;28;5847;-73
2023/12/27 13:42:55;;;;;;;;;;;;;;;10.71;55.68;97160.50;4212982;28;5759;-68
2023/12/27 13:44:59;;;;;;;;;;;;;;;10.73;56.03;97158.50;4202138;28;5847;-70
2023/12/27 13:47:02;;;;;;;;;;;;;;;10.72;55.85;97156.88;4201346;28;5857;-71
2023/12/27 13:49:04;;;;;;;;;;;;;;;10.73;55.97;97153.22;4210088;28;5776;-72
2023/12/27 13:51:07;;;;;;;;;;;;;;;10.74;55.95;97150.38;4208632;28;5640;-67
2023/12/27 13:53:10;;;;;;;;;;;;;;;10.73;55.79;97158.50;4200764;28;5857;-71
2023/12/27 13:55:17;;;;;;;;;;;;;;;10.74;55.76;97144.28;4201543;28;6395;-73
2023/12/27 13:57:21;;;;;;;;;;;;;;;10.75;55.82;97143.25;4210711;28;6591;-74
2023/12/27 13:59:25;;;;;;;;;;;;;;;10.74;56.06;97131.88;4206030;28;5821;-72
2023/12/27 14:01:29;;;;;;;;;;;;;;;10.78;55.79;97145.56;4211826;28;5907;-70
2023/12/27 14:03:32;;;;;;;;;;;;;;;10.78;56.13;97141.09;4208289;28;5745;-70
2023/12/27 14:05:37;;;;;;;;;;;;;;;10.79;55.70;97144.56;4207141;28;5773;-77
2023/12/27 14:07:41;;;;;;;;;;;;;;;10.79;55.81;97137.44;4203969;28;5691;-67
2023/12/27 14:09:44;;;;;;;;;;;;;;;10.78;55.99;97133.16;4205618;28;5761;-72
2023/12/27 14:11:46;;;;;;;;;;;;;;;10.80;55.70;97135.59;4203636;28;5711;-71
2023/12/27 14:13:49;;;;;;;;;;;;;;;10.82;55.66;97130.94;4214155;28;5612;-70
2023/12/27 14:15:53;;;;;;;;;;;;;;;10.83;55.67;97131.75;4206166;28;5715;-69
2023/12/27 14:17:56;;;;;;;;;;;;;;;10.84;55.77;97134.22;4203438;28;5703;-69
2023/12/27 14:19:59;;;;;;;;;;;;;;;10.84;55.82;97136.88;4201153;28;5727;-72
2023/12/27 14:22:03;;;;;;;;;;;;;;;10.83;56.03;97131.75;4205420;28;5715;-75
2023/12/27 14:24:07;;;;;;;;;;;;;;;10.84;55.74;97136.03;4207955;28;6154;-74
2023/12/27 14:26:12;;;;;;;;;;;;;;;10.83;55.52;97145.81;4202747;28;5721;-69
2023/12/27 14:28:15;;;;;;;;;;;;;;;10.85;55.92;97135.03;4207807;28;5837;-69
2023/12/27 14:30:18;;;;;;;;;;;;;;;10.84;55.86;97139.50;4204001;28;5608;-68
2023/12/27 14:32:22;;;;;;;;;;;;;;;10.85;55.66;97146.44;4206609;28;6533;-66
2023/12/27 14:34:25;;;;;;;;;;;;;;;10.86;55.72;97142.78;4208321;28;6523;-66
2023/12/27 14:36:29;;;;;;;;;;;;;;;10.89;55.61;97136.31;4211515;28;5728;-66
2023/12/27 14:38:32;;;;;;;;;;;;;;;10.88;55.42;97134.69;4204797;28;5678;-66
2023/12/27 14:40:34;;;;;;;;;;;;;;;10.89;55.51;97136.31;4212937;28;5602;-66
2023/12/27 14:42:38;;;;;;;;;;;;;;;10.89;55.31;97137.16;4214041;28;5700;-66
2023/12/27 14:44:41;;;;;;;;;;;;;;;10.89;55.31;97137.16;4209246;28;5722;-66
2023/12/27 14:46:44;;;;;;;;;;;;;;;10.89;55.30;97126.56;4205660;28;5704;-66
2023/12/27 14:48:48;;;;;;;;;;;;;;;10.90;55.58;97128.19;4207827;28;5687;-66
2023/12/27 14:50:51;;;;;;;;;;;;;;;10.91;55.47;97137.78;4210789;28;5692;-66
2023/12/27 14:52:54;;;;;;;;;;;;;;;10.92;55.09;97142.06;4213603;28;5669;-66
2023/12/27 14:54:56;;;;;;;;;;;;;;;10.89;55.35;97134.50;4208350;28;6423;-66
2023/12/27 14:57:00;;;;;;;;;;;;;;;10.89;55.14;97136.31;4214113;28;5706;-66
2023/12/27 14:59:04;;;;;;;;;;;;;;;10.88;55.23;97132.03;4208320;28;5631;-66
2023/12/27 15:01:07;;;;;;;;;;;;;;;10.88;55.40;97135.50;4206442;28;5632;-66
2023/12/27 15:03:10;;;;;;;;;;;;;;;10.89;55.26;97141.63;4203926;28;5826;-66
2023/12/27 15:05:15;;;;;;;;;;;;;;;10.86;55.14;97136.69;4206220;28;5632;-76
2023/12/27 15:07:18;;;;;;;;;;;;;;;10.86;55.19;97145.44;4213850;28;5608;-74
2023/12/27 15:09:23;;;;;;;;;;;;;;;10.86;55.19;97142.78;4205976;28;5593;-73
2023/12/27 15:11:26;;;;;;;;;;;;;;;10.87;55.29;97154.19;4205509;28;6346;-71
2023/12/27 15:13:28;;;;;;;;;;;;;;;10.86;55.18;97152.53;4218929;28;5759;-73
2023/12/27 15:15:31;;;;;;;;;;;;;;;10.87;55.14;97149.72;4214546;28;5785;-71
2023/12/27 15:17:34;;;;;;;;;;;;;;;10.87;54.95;97144.41;4207991;28;5608;-70
2023/12/27 15:19:37;;;;;;;;;;;;;;;10.86;54.88;97142.78;4206387;28;5811;-71
2023/12/27 15:21:43;;;;;;;;;;;;;;;10.85;55.03;97149.09;4216103;28;5325;-71
2023/12/27 15:23:46;;;;;;;;;;;;;;;10.85;54.64;97143.78;4207202;28;5746;-73
2023/12/27 15:25:49;;;;;;;;;;;;;;;10.85;54.80;97138.50;4202521;28;5617;-73
2023/12/27 15:27:50;;;;;;;;;;;;;;;10.85;54.97;97140.34;4199627;28;6312;-72
2023/12/27 15:29:57;;;;;;;;;;;;;;;10.85;54.51;97140.34;4205307;28;5818;-75
2023/12/27 15:32:00;;;;;;;;;;;;;;;10.85;54.83;97141.16;4207886;28;5723;-68
2023/12/27 15:34:04;;;;;;;;;;;;;;;10.85;54.53;97135.03;4208221;28;5873;-70
2023/12/27 15:36:06;;;;;;;;;;;;;;;10.83;54.80;97139.69;4202665;28;5787;-70
2023/12/27 15:38:11;;;;;;;;;;;;;;;10.83;54.86;97143.16;4206507;28;5605;-71
2023/12/27 15:40:14;;;;;;;;;;;;;;;10.83;54.73;97143.16;4208773;28;7081;-70
2023/12/27 15:42:17;;;;;;;;;;;;;;;10.83;54.63;97143.16;4210200;28;5743;-72
2023/12/27 15:44:22;;;;;;;;;;;;;;;10.81;54.43;97142.53;4201048;28;5790;-68
2023/12/27 15:46:28;;;;;;;;;;;;;;;10.80;54.50;97138.25;4212884;28;5169;-71
2023/12/27 15:48:30;;;;;;;;;;;;;;;10.79;54.64;97147.19;4213496;28;5813;-72
2023/12/27 15:50:33;;;;;;;;;;;;;;;10.78;54.54;97145.56;4203616;28;5699;-74
2023/12/27 15:52:37;;;;;;;;;;;;;;;10.75;54.63;97145.91;4206946;28;5795;-73
2023/12/27 15:54:43;;;;;;;;;;;;;;;10.73;54.55;97155.84;4202617;28;5678;-81
2023/12/27 15:56:48;;;;;;;;;;;;;;;10.71;54.66;97149.94;4213795;28;5719;-73
2023/12/27 15:58:54;;;;;;;;;;;;;;;10.68;54.64;97151.13;4194724;28;5642;-71
2023/12/27 16:00:57;;;;;;;;;;;;;;;10.67;54.38;97156.63;4207880;28;5639;-67
2023/12/27 16:03:01;;;;;;;;;;;;;;;10.65;54.49;97162.09;4204093;28;5635;-68
2023/12/27 16:05:04;;;;;;;;;;;;;;;10.62;54.30;97156.31;4207761;28;5608;-70
2023/12/27 16:07:07;;;;;;;;;;;;;;;10.59;54.19;97152.22;4207157;28;5687;-71
2023/12/27 16:09:11;;;;;;;;;;;;;;;10.58;54.42;97144.50;4201848;28;5753;-66
2023/12/27 16:11:15;;;;;;;;;;;;;;;10.56;54.42;97146.50;4214270;28;5625;-68
2023/12/27 16:13:18;;;;;;;;;;;;;;;10.55;54.28;97158.09;4203554;28;5714;-66
2023/12/27 16:15:21;;;;;;;;;;;;;;;10.53;54.49;97162.72;4214778;28;5716;-69
2023/12/27 16:17:24;;;;;;;;;;;;;;;10.52;54.56;97161.91;4196890;28;5647;-72
2023/12/27 16:19:27;;;;;;;;;;;;;;;10.50;54.17;97159.44;4211082;28;5668;-68
2023/12/27 16:21:30;;;;;;;;;;;;;;;10.52;54.22;97153.16;4214259;28;5598;-73
2023/12/27 16:23:34;;;;;;;;;;;;;;;10.52;54.32;97164.53;4211880;28;5736;-72
2023/12/27 16:25:37;;;;;;;;;;;;;;;10.53;54.20;97166.19;4210077;28;5690;-71
2023/12/27 16:27:41;;;;;;;;;;;;;;;10.52;54.41;97163.72;4211348;28;5608;-72
2023/12/27 16:29:44;;;;;;;;;;;;;;;10.51;54.38;97173.47;4215230;28;5706;-73
2023/12/27 16:31:48;;;;;;;;;;;;;;;10.50;54.39;97179.78;4208763;28;5647;-76
2023/12/27 16:33:52;;;;;;;;;;;;;;;10.49;54.25;97173.66;4215798;28;5664;-82
2023/12/27 16:35:58;;;;;;;;;;;;;;;10.48;53.99;97169.38;4217452;28;5664;-72
2023/12/27 16:38:01;;;;;;;;;;;;;;;10.47;54.17;97175.69;4211256;28;5927;-70
2023/12/27 16:40:04;;;;;;;;;;;;;;;10.47;54.08;97185.44;4203749;28;5842;-71
2023/12/27 16:42:08;;;;;;;;;;;;;;;10.44;53.73;97186.63;4205729;28;5636;-73
2023/12/27 16:44:13;;;;;;;;;;;;;;;10.43;53.61;97182.34;4213359;28;5802;-74
2023/12/27 16:46:16;;;;;;;;;;;;;;;10.43;53.90;97184.16;4206350;28;5727;-75
2023/12/27 16:48:22;;;;;;;;;;;;;;;10.41;53.44;97186.16;4212265;28;5699;-71
2023/12/27 16:50:24;;;;;;;;;;;;;;;10.39;53.37;97186.34;4219789;28;5785;-65
2023/12/27 16:52:27;;;;;;;;;;;;;;;10.39;53.02;97188.97;4202363;28;5719;-68
2023/12/27 16:54:30;;;;;;;;;;;;;;;10.39;53.24;97188.97;4206867;28;5810;-69
2023/12/27 16:56:34;;;;;;;;;;;;;;;10.39;52.94;97194.25;4207355;28;5772;-66
2023/12/27 16:58:36;;;;;;;;;;;;;;;10.38;52.94;97197.91;4207981;28;6309;-66
2023/12/27 17:00:40;;;;;;;;;;;;;;;10.38;53.01;97197.91;4211281;28;5698;-66
2023/12/27 17:02:45;;;;;;;;;;;;;;;10.38;52.62;97195.25;4206437;28;6292;-67
2023/12/27 17:04:48;;;;;;;;;;;;;;;10.36;52.49;97194.63;4207453;28;5751;-69
2023/12/27 17:06:51;;;;;;;;;;;;;;;10.37;52.38;97196.28;4210673;28;6585;-74
2023/12/27 17:08:55;;;;;;;;;;;;;;;10.37;52.43;97195.44;4219809;28;5657;-76
2023/12/27 17:10:57;;;;;;;;;;;;;;;10.37;52.60;97195.44;4213514;28;5682;-77
2023/12/27 17:13:01;;;;;;;;;;;;;;;10.37;52.29;97204.19;4210379;28;5609;-74
2023/12/27 17:15:05;;;;;;;;;;;;;;;10.38;52.38;97197.91;4213824;28;5730;-73
2023/12/27 17:17:11;;;;;;;;;;;;;;;10.37;52.40;97206.84;4211594;28;5738;-68
2023/12/27 17:19:14;;;;;;;;;;;;;;;10.36;52.22;97205.19;4215799;28;6569;-68
2023/12/27 17:21:17;;;;;;;;;;;;;;;10.36;52.41;97210.50;4204916;28;5615;-67
2023/12/27 17:23:23;;;;;;;;;;;;;;;10.34;52.27;97201.94;4210118;28;5703;-75
2023/12/27 17:25:27;;;;;;;;;;;;;;;10.35;52.05;97216.78;4202352;28;5086;-67
2023/12/27 17:27:29;;;;;;;;;;;;;;;10.35;52.02;97218.59;4208091;28;7695;-67
2023/12/27 17:29:32;;;;;;;;;;;;;;;10.33;51.77;97216.16;4200458;28;5702;-68
2023/12/27 17:31:36;;;;;;;;;;;;;;;10.32;51.84;97211.88;4201814;28;5687;-68
2023/12/27 17:33:41;;;;;;;;;;;;;;;10.35;51.75;97224.72;4201254;28;6419;-67
2023/12/27 17:35:47;;;;;;;;;;;;;;;10.35;51.82;97216.78;4210387;28;5609;-67
2023/12/27 17:37:50;;;;;;;;;;;;;;;10.36;51.62;97223.69;4217140;28;5731;-67
2023/12/27 17:39:53;;;;;;;;;;;;;;;10.34;51.81;97220.44;4212387;28;5705;-68
2023/12/27 17:41:56;;;;;;;;;;;;;;;10.33;51.94;97218.78;4206768;28;6225;-67
2023/12/27 17:43:59;;;;;;;;;;;;;;;10.34;51.77;97220.44;4219588;28;5683;-67
2023/12/27 17:46:02;;;;;;;;;;;;;;;10.33;51.98;97217.97;4206980;28;5715;-67
2023/12/27 17:48:06;;;;;;;;;;;;;;;10.32;51.83;97219.78;4223033;28;5755;-67
2023/12/27 17:50:10;;;;;;;;;;;;;;;10.33;51.93;97220.59;4203630;28;5631;-67
2023/12/27 17:52:13;;;;;;;;;;;;;;;10.32;51.89;97218.97;4220629;28;5698;-68
2023/12/27 17:54:16;;;;;;;;;;;;;;;10.34;51.83;97222.25;4206120;28;5643;-67
2023/12/27 17:56:19;;;;;;;;;;;;;;;10.33;51.65;97213.50;4212871;28;5620;-67
2023/12/27 17:58:22;;;;;;;;;;;;;;;10.35;51.74;97219.41;4213436;28;5621;-68
2023/12/27 18:00:25;;;;;;;;;;;;;;;10.34;51.76;97220.44;4216960;28;5613;-68
2023/12/27 18:02:28;;;;;;;;;;;;;;;10.34;51.66;97223.06;4224082;28;5625;-66
2023/12/27 18:04:32;;;;;;;;;;;;;;;10.33;51.56;97226.72;4221257;28;5688;-67
2023/12/27 18:06:36;;;;;;;;;;;;;;;10.35;51.81;97230.00;4212587;28;5719;-67
2023/12/27 18:08:43;;;;;;;;;;;;;;;10.34;51.51;97228.34;4211617;28;5598;-66
2023/12/27 18:10:46;;;;;;;;;;;;;;;10.32;51.84;97235.66;4223579;28;5716;-67
2023/12/27 18:12:49;;;;;;;;;;;;;;;10.32;51.58;97238.28;4208378;28;5706;-67
2023/12/27 18:14:53;;;;;;;;;;;;;;;10.30;51.84;97234.97;4214472;28;5609;-67
2023/12/27 18:16:56;;;;;;;;;;;;;;;10.30;51.39;97242.91;4222413;28;5629;-67
2023/12/27 18:19:00;;;;;;;;;;;;;;;10.30;51.54;97236.81;4217471;28;5605;-67
2023/12/27 18:21:06;;;;;;;;;;;;;;;10.30;51.36;97240.25;4208998;28;5648;-67
2023/12/27 18:23:10;;;;;;;;;;;;;;;10.28;51.42;97246.75;4208673;28;5624;-67
2023/12/27 18:25:14;;;;;;;;;;;;;;;10.28;51.52;97244.91;4216582;28;5727;-67
2023/12/27 18:27:18;;;;;;;;;;;;;;;10.28;51.35;97250.19;4208016;28;5746;-67
2023/12/27 18:29:21;;;;;;;;;;;;;;;10.29;51.28;97259.75;4207212;28;5916;-67
2023/12/27 18:31:26;;;;;;;;;;;;;;;10.28;51.48;97250.19;4207487;28;5861;-67
2023/12/27 18:33:30;;;;;;;;;;;;;;;10.26;51.34;97252.22;4211815;28;6295;-67
2023/12/27 18:35:33;;;;;;;;;;;;;;;10.28;51.24;97259.94;4209610;28;5746;-67
2023/12/27 18:37:36;;;;;;;;;;;;;;;10.29;51.22;97262.41;4213050;28;5744;-68
2023/12/27 18:39:40;;;;;;;;;;;;;;;10.28;50.95;97260.78;4213849;28;5073;-68
2023/12/27 18:41:45;;;;;;;;;;;;;;;10.28;51.25;97267.88;4207674;28;5746;-67
2023/12/27 18:43:48;;;;;;;;;;;;;;;10.26;50.97;97268.06;4207823;28;5796;-67
2023/12/27 18:45:52;;;;;;;;;;;;;;;10.26;51.10;97268.06;4218286;28;5868;-67
2023/12/27 18:47:55;;;;;;;;;;;;;;;10.28;50.86;97270.53;4211765;28;5749;-67
2023/12/27 18:50:00;;;;;;;;;;;;;;;10.26;50.94;97270.72;4211691;28;5912;-67
2023/12/27 18:52:05;;;;;;;;;;;;;;;10.26;50.94;97278.63;4218722;28;5663;-67
2023/12/27 18:54:08;;;;;;;;;;;;;;;10.29;50.69;97266.88;4213047;28;5620;-67
2023/12/27 18:56:13;;;;;;;;;;;;;;;10.28;51.05;97279.28;4208429;28;5720;-67
2023/12/27 18:58:16;;;;;;;;;;;;;;;10.29;50.86;97264.22;4203277;28;5777;-67
2023/12/27 19:00:19;;;;;;;;;;;;;;;10.25;50.88;97277.00;4193611;28;5642;-67
2023/12/27 19:02:21;;;;;;;;;;;;;;;10.22;50.88;97282.66;4213538;28;5779;-68
2023/12/27 19:04:24;;;;;;;;;;;;;;;10.20;51.12;97279.34;4228072;28;5594;-67
2023/12/27 19:06:27;;;;;;;;;;;;;;;10.22;51.31;97280.00;4213359;28;5683;-67
2023/12/27 19:08:34;;;;;;;;;;;;;;;10.24;51.23;97291.22;4211084;28;5802;-67
2023/12/27 19:10:36;;;;;;;;;;;;;;;10.25;51.39;97295.50;4208020;28;5711;-68
2023/12/27 19:12:40;;;;;;;;;;;;;;;10.26;51.23;97288.38;4225825;28;5838;-68
2023/12/27 19:14:43;;;;;;;;;;;;;;;10.26;51.22;97294.50;4209768;28;5616;-68
2023/12/27 19:16:47;;;;;;;;;;;;;;;10.29;50.76;97293.31;4220613;28;5760;-67
2023/12/27 19:18:50;;;;;;;;;;;;;;;10.28;50.93;97286.38;4218027;28;5865;-67
2023/12/27 19:20:52;;;;;;;;;;;;;;;10.29;50.81;97288.84;4224356;28;5839;-67
2023/12/27 19:22:55;;;;;;;;;;;;;;;10.31;50.70;97297.44;4207295;28;6339;-67
2023/12/27 19:24:59;;;;;;;;;;;;;;;10.31;50.82;97300.06;4214482;28;5605;-67
2023/12/27 19:27:02;;;;;;;;;;;;;;;10.33;50.96;97307.81;4208884;28;5782;-68
2023/12/27 19:29:06;;;;;;;;;;;;;;;10.33;50.40;97300.72;4208164;28;5824;-68
2023/12/27 19:31:09;;;;;;;;;;;;;;;10.34;50.78;97318.22;4213076;28;5796;-68
2023/12/27 19:33:12;;;;;;;;;;;;;;;10.34;50.39;97323.50;4200449;28;5646;-67
2023/12/27 19:35:17;;;;;;;;;;;;;;;10.34;50.54;97326.13;4215968;28;5748;-67
2023/12/27 19:37:20;;;;;;;;;;;;;;;10.34;50.61;97334.06;4219538;28;5835;-67
2023/12/27 19:39:21;;;;;;;;;;;;;;;10.33;50.56;97337.72;4214309;28;5611;-67
2023/12/27 19:41:25;;;;;;;;;;;;;;;10.31;50.18;97341.53;4217160;28;5677;-67
2023/12/27 19:43:27;;;;;;;;;;;;;;;10.30;50.02;97337.22;4214400;28;5798;-67
2023/12/27 19:45:32;;;;;;;;;;;;;;;10.32;50.32;97336.06;4214326;28;5756;-67
2023/12/27 19:47:35;;;;;;;;;;;;;;;10.34;50.14;97339.34;4214903;28;5830;-67
2023/12/27 19:49:38;;;;;;;;;;;;;;;10.36;49.90;97332.06;4213726;28;5861;-67
2023/12/27 19:51:43;;;;;;;;;;;;;;;10.39;50.10;97330.88;4206804;28;5787;-66
2023/12/27 19:53:46;;;;;;;;;;;;;;;10.41;49.85;97334.97;4199002;28;5762;-68
2023/12/27 19:55:50;;;;;;;;;;;;;;;10.43;49.94;97322.44;4200979;28;5775;-68
2023/12/27 19:57:54;;;;;;;;;;;;;;;10.43;49.88;97322.44;4199599;28;5818;-67
2023/12/27 19:59:56;;;;;;;;;;;;;;;10.44;49.77;97339.94;4201565;28;5639;-68
2023/12/27 20:02:01;;;;;;;;;;;;;;;10.44;49.57;97339.94;4209529;28;5604;-68
2023/12/27 20:04:04;;;;;;;;;;;;;;;10.43;49.80;97324.25;4213702;28;5609;-68
2023/12/27 20:06:07;;;;;;;;;;;;;;;10.42;49.39;97344.56;4213144;28;5819;-68
2023/12/27 20:08:11;;;;;;;;;;;;;;;10.40;49.76;97348.38;4218486;28;5621;-68
2023/12/27 20:10:14;;;;;;;;;;;;;;;10.39;49.61;97336.16;4215964;28;5635;-68
2023/12/27 20:12:17;;;;;;;;;;;;;;;10.35;49.72;97335.72;4219214;28;5707;-68
2023/12/27 20:14:19;;;;;;;;;;;;;;;10.32;49.93;97338.72;4219490;28;5824;-68
2023/12/27 20:16:26;;;;;;;;;;;;;;;10.31;49.80;97344.19;4221092;28;5064;-68
2023/12/27 20:18:31;;;;;;;;;;;;;;;10.32;50.24;97344.00;4208679;28;5896;-68
2023/12/27 20:20:33;;;;;;;;;;;;;;;10.31;50.42;97344.19;4221277;28;5621;-67
2023/12/27 20:22:36;;;;;;;;;;;;;;;10.31;50.41;97352.94;4221999;28;5605;-67
2023/12/27 20:24:40;;;;;;;;;;;;;;;10.33;50.70;97368.59;4209853;28;5710;-67
2023/12/27 20:26:43;;;;;;;;;;;;;;;10.32;50.75;97362.50;4203849;28;5809;-67
2023/12/27 20:28:46;;;;;;;;;;;;;;;10.35;50.69;97362.13;4214348;28;5864;-67
2023/12/27 20:30:49;;;;;;;;;;;;;;;10.35;51.16;97366.59;4221987;28;5665;-67
2023/12/27 20:32:54;;;;;;;;;;;;;;;10.35;50.76;97363.97;4217175;28;5665;-67
2023/12/27 20:34:58;;;;;;;;;;;;;;;10.35;51.04;97356.84;4218299;28;5873;-68
2023/12/27 20:37:02;;;;;;;;;;;;;;;10.33;50.71;97366.78;4210568;28;5628;-68
2023/12/27 20:39:05;;;;;;;;;;;;;;;10.34;50.95;97376.34;4214763;28;5852;-73
2023/12/27 20:41:09;;;;;;;;;;;;;;;10.36;50.84;97377.00;4206021;28;5605;-73
2023/12/27 20:43:11;;;;;;;;;;;;;;;10.34;50.86;97376.34;4213325;28;5767;-73
2023/12/27 20:45:14;;;;;;;;;;;;;;;10.37;50.87;97383.09;4218851;28;5590;-71
2023/12/27 20:47:17;;;;;;;;;;;;;;;10.40;50.63;97374.81;4221816;28;5594;-69
2023/12/27 20:49:19;;;;;;;;;;;;;;;10.42;50.46;97380.75;4207540;28;5896;-72
2023/12/27 20:51:24;;;;;;;;;;;;;;;10.44;50.49;97376.94;4209630;28;5610;-73
2023/12/27 20:53:27;;;;;;;;;;;;;;;10.44;50.72;97379.56;4209534;28;5638;-83
2023/12/27 20:55:30;;;;;;;;;;;;;;;10.46;50.51;97369.63;4202876;28;5686;-73
2023/12/27 20:57:33;;;;;;;;;;;;;;;10.48;50.45;97386.13;4212939;28;6243;-74
2023/12/27 20:59:36;;;;;;;;;;;;;;;10.49;50.32;97377.22;4216290;28;5608;-73
2023/12/27 21:01:39;;;;;;;;;;;;;;;10.49;50.11;97374.56;4219279;28;5598;-74
2023/12/27 21:03:42;;;;;;;;;;;;;;;10.50;49.63;97378.03;4213100;28;6489;-74
2023/12/27 21:05:46;;;;;;;;;;;;;;;10.48;49.82;97383.50;4219824;28;5776;-74
2023/12/27 21:07:50;;;;;;;;;;;;;;;10.47;49.84;97392.44;4207955;28;5625;-73
2023/12/27 21:09:52;;;;;;;;;;;;;;;10.47;50.11;97387.16;4216408;28;5601;-74
2023/12/27 21:11:56;;;;;;;;;;;;;;;10.49;49.88;97386.97;4201003;28;5656;-74
2023/12/27 21:13:59;;;;;;;;;;;;;;;10.50;49.35;97378.84;4217123;28;5645;-78
2023/12/27 21:16:02;;;;;;;;;;;;;;;10.50;49.89;97389.41;4201079;28;5681;-73
2023/12/27 21:18:05;;;;;;;;;;;;;;;10.50;49.52;97384.13;4216263;28;5609;-73
2023/12/27 21:20:10;;;;;;;;;;;;;;;10.49;49.96;97390.44;4207648;28;5782;-74
2023/12/27 21:22:13;;;;;;;;;;;;;;;10.49;49.49;97392.25;4209542;28;5821;-72
2023/12/27 21:24:18;;;;;;;;;;;;;;;10.50;49.38;97392.06;4217154;28;6298;-79
2023/12/27 21:26:24;;;;;;;;;;;;;;;10.49;49.66;97390.44;4207412;28;5731;-76
2023/12/27 21:28:27;;;;;;;;;;;;;;;10.50;49.57;97391.25;4209224;28;5772;-73
2023/12/27 21:30:30;;;;;;;;;;;;;;;10.50;49.64;97388.59;4216928;28;5829;-77
2023/12/27 21:32:33;;;;;;;;;;;;;;;10.50;49.55;97400.00;4215542;28;6209;-76
2023/12/27 21:34:36;;;;;;;;;;;;;;;10.51;49.44;97392.88;4213621;28;7108;-67
2023/12/27 21:36:40;;;;;;;;;;;;;;;10.52;49.65;97389.25;4207614;28;5608;-66
2023/12/27 21:38:43;;;;;;;;;;;;;;;10.52;49.18;97393.72;4211646;28;5728;-66
2023/12/27 21:40:48;;;;;;;;;;;;;;;10.53;49.25;97395.34;4211409;28;5643;-66
2023/12/27 21:42:51;;;;;;;;;;;;;;;10.53;49.37;97392.69;4200641;28;5874;-66
2023/12/27 21:44:53;;;;;;;;;;;;;;;10.54;49.53;97391.72;4211740;28;5765;-66
2023/12/27 21:46:56;;;;;;;;;;;;;;;10.54;49.31;97407.59;4216436;28;5597;-68
2023/12/27 21:49:00;;;;;;;;;;;;;;;10.55;49.27;97396.84;4217833;28;5813;-66
2023/12/27 21:51:02;;;;;;;;;;;;;;;10.55;49.17;97403.94;4216867;28;5613;-81